Time;durP1;ratioP1;P1;durP2;ratioP2;P2;SDS_P1;SDS_P2;PMS_P1;PMS_P2;Temp;Humidity;BMP_temperature;BMP_pressure;BME280_temperature;BME280_humidity;BME280_pressure;Samples;Min_cycle;Max_cycle;Signal;HPM_P1;HPM_P2
2021/11/28 00:00:47;;;;;;;2.58;1.63;;;2.90;99.90;;;;;;5066762;28;20020;-81
2021/11/28 00:03:15;;;;;;;2.75;1.70;;;2.90;99.90;;;;;;5066675;28;20040;-81
2021/11/28 00:05:42;;;;;;;2.70;1.77;;;2.90;99.90;;;;;;5026995;28;20030;-81
2021/11/28 00:10:55;;;;;;;2.43;1.57;;;2.90;99.90;;;;;;5026454;28;20018;-81
2021/11/28 00:16:10;;;;;;;2.47;1.30;;;3.00;99.30;;;;;;5008804;28;20061;-81
2021/11/28 00:18:36;;;;;;;2.08;1.40;;;3.00;99.20;;;;;;5046262;28;20486;-79
2021/11/28 00:21:03;;;;;;;2.92;1.67;;;3.00;99.10;;;;;;5045448;28;20056;-80
2021/11/28 00:23:28;;;;;;;1.38;1.02;;;3.00;98.90;;;;;;5048268;28;20057;-80
2021/11/28 00:25:54;;;;;;;3.28;1.27;;;3.00;98.70;;;;;;5042555;28;20062;-83
2021/11/28 00:28:20;;;;;;;1.50;1.08;;;3.10;98.50;;;;;;5051187;28;20099;-81
2021/11/28 00:30:46;;;;;;;2.33;1.23;;;3.00;98.30;;;;;;5065566;28;20362;-80
2021/11/28 00:33:12;;;;;;;2.72;1.27;;;3.10;98.30;;;;;;5065240;28;20025;-81
2021/11/28 00:35:38;;;;;;;3.58;1.73;;;3.10;98.10;;;;;;5063447;28;20037;-80
2021/11/28 00:38:03;;;;;;;1.70;1.05;;;3.10;97.90;;;;;;5043890;28;20478;-80
2021/11/28 00:40:29;;;;;;;3.00;1.48;;;3.10;97.70;;;;;;5044939;28;20429;-81
2021/11/28 00:42:56;;;;;;;2.40;1.30;;;3.10;97.50;;;;;;5028864;28;20389;-80
2021/11/28 00:45:22;;;;;;;2.05;1.27;;;3.10;97.40;;;;;;5044177;28;20108;-80
2021/11/28 00:47:48;;;;;;;3.15;1.60;;;3.10;97.50;;;;;;5027652;28;20026;-81
2021/11/28 00:52:42;;;;;;;2.63;1.25;;;3.20;97.40;;;;;;5025268;28;20391;-80
2021/11/28 00:55:10;;;;;;;2.78;1.10;;;3.20;97.50;;;;;;5028595;28;20018;-82
2021/11/28 00:57:36;;;;;;;1.58;0.90;;;3.20;97.50;;;;;;5022726;28;20056;-80
2021/11/28 01:00:06;;;;;;;1.70;1.10;;;3.20;97.60;;;;;;5066035;28;20277;-81
2021/11/28 01:02:32;;;;;;;1.33;1.08;;;3.30;97.60;;;;;;5047745;28;20025;-80
2021/11/28 01:04:58;;;;;;;2.20;1.17;;;3.30;97.60;;;;;;5065672;28;20029;-80
2021/11/28 01:07:26;;;;;;;3.90;1.20;;;3.30;97.50;;;;;;5059143;28;20031;-81
2021/11/28 01:09:52;;;;;;;1.70;1.20;;;3.30;97.40;;;;;;5048944;28;20029;-80
2021/11/28 01:12:19;;;;;;;2.00;1.08;;;3.30;97.30;;;;;;5045079;28;20132;-80
2021/11/28 01:14:44;;;;;;;2.30;1.27;;;3.30;97.20;;;;;;5043397;28;20024;-81
2021/11/28 01:17:10;;;;;;;2.05;1.58;;;3.30;97.10;;;;;;5024931;28;20414;-80
2021/11/28 01:19:36;;;;;;;2.67;1.27;;;3.20;97.20;;;;;;5025586;28;20089;-80
2021/11/28 01:22:08;;;;;;;2.20;1.35;;;3.30;97.40;;;;;;5027429;28;20037;-81
2021/11/28 01:24:35;;;;;;;2.58;1.60;;;3.20;97.50;;;;;;5025746;28;20049;-82
2021/11/28 01:27:03;;;;;;;2.97;1.83;;;3.20;97.70;;;;;;5025954;28;20120;-81
2021/11/28 01:29:29;;;;;;;2.80;1.30;;;3.20;97.80;;;;;;5045050;28;20029;-81
2021/11/28 01:31:55;;;;;;;2.60;1.60;;;3.20;98.00;;;;;;5052358;28;20031;-81
2021/11/28 01:34:23;;;;;;;2.75;1.40;;;3.10;98.30;;;;;;5052464;28;20051;-81
2021/11/28 01:36:50;;;;;;;2.95;1.85;;;3.10;98.50;;;;;;5052688;28;20033;-81
2021/11/28 01:39:15;;;;;;;3.45;1.60;;;3.10;98.80;;;;;;5037919;28;20084;-80
2021/11/28 01:41:42;;;;;;;3.00;1.65;;;3.10;98.90;;;;;;5014580;28;20030;-82
2021/11/28 01:44:09;;;;;;;2.72;1.13;;;3.00;99.10;;;;;;5024327;28;20033;-81
2021/11/28 01:46:34;;;;;;;2.33;1.35;;;2.90;99.40;;;;;;5022508;28;20049;-80
2021/11/28 01:49:00;;;;;;;2.80;1.20;;;2.80;99.60;;;;;;5023606;28;20010;-80
2021/11/28 01:51:26;;;;;;;3.20;0.98;;;2.80;99.90;;;;;;5026467;28;20038;-81
2021/11/28 01:53:54;;;;;;;2.53;1.38;;;2.70;99.90;;;;;;5028408;28;20049;-80
2021/11/28 01:56:22;;;;;;;3.05;1.20;;;2.60;99.90;;;;;;5029784;28;20089;-81
2021/11/28 01:58:48;;;;;;;1.40;1.10;;;2.60;99.90;;;;;;5030439;28;20034;-82
2021/11/28 02:01:16;;;;;;;2.75;1.40;;;2.50;99.90;;;;;;5028071;28;20022;-82
2021/11/28 02:03:43;;;;;;;2.85;1.13;;;2.40;99.90;;;;;;5027948;28;20014;-81
2021/11/28 02:06:12;;;;;;;3.05;1.42;;;2.40;99.90;;;;;;5010407;28;20038;-81
2021/11/28 02:08:39;;;;;;;1.42;0.90;;;2.30;99.90;;;;;;5011496;28;20309;-81
2021/11/28 02:11:06;;;;;;;1.58;1.17;;;2.30;99.90;;;;;;5031621;28;20032;-82
2021/11/28 02:13:32;;;;;;;2.65;1.45;;;2.30;99.90;;;;;;5046869;28;20052;-80
2021/11/28 02:15:58;;;;;;;3.15;1.33;;;2.20;99.90;;;;;;5045426;28;20037;-80
2021/11/28 02:18:25;;;;;;;4.63;1.50;;;2.20;99.90;;;;;;5028719;28;20021;-81
2021/11/28 02:20:55;;;;;;;1.02;1.00;;;2.20;99.90;;;;;;5045398;28;20089;-81
2021/11/28 02:23:34;;;;;;;1.27;1.00;;;2.20;99.90;;;;;;5048173;23;20497;-88
2021/11/28 02:26:10;;;;;;;1.60;1.10;;;2.20;99.90;;;;;;5030554;28;20025;-88
2021/11/28 02:28:39;;;;;;;2.33;0.75;;;2.20;99.90;;;;;;5036171;28;20539;-87
2021/11/28 02:31:06;;;;;;;1.42;0.85;;;2.20;99.90;;;;;;5036744;28;20616;-86
2021/11/28 02:33:33;;;;;;;0.98;0.88;;;2.20;99.90;;;;;;5018165;28;20022;-87
2021/11/28 02:36:07;;;;;;;1.35;1.00;;;2.20;99.90;;;;;;5017599;28;20030;-87
2021/11/28 02:38:41;;;;;;;1.10;0.90;;;2.20;99.90;;;;;;4999139;28;20021;-87
2021/11/28 02:41:10;;;;;;;1.40;0.80;;;2.20;99.90;;;;;;5015627;28;20033;-88
2021/11/28 02:43:52;;;;;;;2.67;1.00;;;2.30;99.90;;;;;;4998677;28;20094;-88
2021/11/28 02:46:18;;;;;;;2.53;1.30;;;2.20;99.90;;;;;;4999975;28;20121;-88
2021/11/28 02:48:53;;;;;;;2.28;0.88;;;2.20;99.90;;;;;;5018544;28;20087;-88
2021/11/28 02:51:19;;;;;;;2.25;0.73;;;2.20;99.90;;;;;;5018863;28;20256;-88
2021/11/28 02:54:03;;;;;;;1.42;0.80;;;2.20;99.90;;;;;;5018555;28;20022;-88
2021/11/28 02:56:34;;;;;;;3.13;1.10;;;2.20;99.90;;;;;;5021673;28;20029;-87
2021/11/28 02:59:01;;;;;;;1.88;0.73;;;2.20;99.90;;;;;;4996301;28;20038;-88
2021/11/28 03:01:29;;;;;;;1.42;0.65;;;2.20;99.90;;;;;;4996700;28;20086;-89
2021/11/28 03:03:55;;;;;;;1.15;0.90;;;2.20;99.90;;;;;;4997059;28;20029;-89
2021/11/28 03:06:21;;;;;;;1.83;0.70;;;2.30;99.90;;;;;;5001490;28;20038;-88
2021/11/28 03:08:48;;;;;;;1.33;1.02;;;2.30;99.90;;;;;;5033984;28;20021;-89
2021/11/28 03:11:16;;;;;;;1.58;0.70;;;2.30;99.90;;;;;;5034957;28;20021;-89
2021/11/28 03:13:51;;;;;;;1.60;0.73;;;2.30;99.90;;;;;;5042630;28;20048;-88
2021/11/28 03:16:20;;;;;;;2.40;1.00;;;2.30;99.90;;;;;;5041516;28;20109;-87
2021/11/28 03:18:47;;;;;;;1.02;0.77;;;2.20;99.90;;;;;;5040513;28;20042;-88
2021/11/28 03:21:49;;;;;;;1.98;0.73;;;2.30;99.90;;;;;;5136434;23;20098;-87
2021/11/28 03:24:20;;;;;;;1.10;0.80;;;2.30;99.90;;;;;;4983512;28;20051;-86
2021/11/28 03:26:47;;;;;;;1.45;0.90;;;2.30;99.90;;;;;;4980282;28;20027;-87
2021/11/28 03:29:17;;;;;;;1.90;0.98;;;2.20;99.90;;;;;;4959661;28;20082;-87
2021/11/28 03:31:48;;;;;;;2.75;1.02;;;2.20;99.90;;;;;;4942678;29;20082;-86
2021/11/28 03:34:17;;;;;;;1.23;0.75;;;2.20;99.90;;;;;;4942806;29;20027;-87
2021/11/28 03:36:57;;;;;;;1.10;0.90;;;2.20;99.90;;;;;;4942807;29;20484;-87
2021/11/28 03:39:27;;;;;;;1.30;0.93;;;2.20;99.90;;;;;;4959573;28;20031;-87
2021/11/28 03:41:58;;;;;;;0.70;0.70;;;2.20;99.90;;;;;;4971868;28;20022;-86
2021/11/28 03:44:26;;;;;;;2.40;0.90;;;2.10;99.90;;;;;;4984195;28;20444;-88
2021/11/28 03:46:52;;;;;;;2.05;0.80;;;2.10;99.90;;;;;;4982558;28;20403;-87
2021/11/28 03:49:18;;;;;;;2.63;0.90;;;2.10;99.90;;;;;;4998697;28;20501;-87
2021/11/28 03:51:44;;;;;;;0.75;0.68;;;2.20;99.90;;;;;;4982188;28;20030;-87
2021/11/28 03:54:10;;;;;;;1.13;0.93;;;2.10;99.90;;;;;;4981066;28;20598;-88
2021/11/28 03:56:37;;;;;;;0.88;0.70;;;2.10;99.90;;;;;;4986187;28;20062;-88
2021/11/28 03:59:03;;;;;;;2.78;0.95;;;2.10;99.90;;;;;;4995245;28;20019;-88
2021/11/28 04:01:30;;;;;;;1.10;0.80;;;2.10;99.90;;;;;;4958927;29;20031;-88
2021/11/28 04:03:56;;;;;;;1.20;0.88;;;2.10;99.90;;;;;;4943385;29;20082;-87
2021/11/28 04:06:29;;;;;;;1.77;0.90;;;2.20;99.90;;;;;;4952836;29;20051;-88
2021/11/28 04:08:55;;;;;;;0.90;0.57;;;2.20;99.90;;;;;;4964564;28;20031;-88
2021/11/28 04:11:21;;;;;;;0.85;0.65;;;2.20;99.90;;;;;;4990795;28;20030;-87
2021/11/28 04:13:47;;;;;;;0.90;0.80;;;2.20;99.90;;;;;;4994264;28;20036;-87
2021/11/28 04:16:13;;;;;;;0.57;0.57;;;2.30;99.90;;;;;;4985430;28;20510;-86
2021/11/28 04:18:40;;;;;;;0.93;0.68;;;2.20;99.90;;;;;;4991539;28;20037;-87
2021/11/28 04:21:12;;;;;;;0.90;0.63;;;2.30;99.90;;;;;;4986657;28;20051;-88
2021/11/28 04:23:48;;;;;;;;;;;;;;;;;;;;;
2021/11/28 04:26:14;;;;;;;1.35;1.00;;;2.20;99.90;;;;;;4959644;29;20119;-88
2021/11/28 04:28:41;;;;;;;0.82;0.70;;;2.30;99.90;;;;;;4942874;29;20027;-87
2021/11/28 04:31:12;;;;;;;0.80;0.70;;;2.20;99.90;;;;;;4943593;29;20023;-86
2021/11/28 04:33:44;;;;;;;1.15;0.75;;;2.20;99.90;;;;;;4944364;29;20035;-87
2021/11/28 04:36:15;;;;;;;1.88;0.93;;;2.30;99.90;;;;;;4944244;29;20028;-87
2021/11/28 04:38:44;;;;;;;1.08;0.90;;;2.30;99.90;;;;;;4952908;29;20064;-88
2021/11/28 04:41:10;;;;;;;1.27;0.93;;;2.30;99.90;;;;;;5011638;28;20098;-89
2021/11/28 04:43:36;;;;;;;0.95;0.88;;;2.40;99.90;;;;;;4990361;28;20039;-87
2021/11/28 04:46:03;;;;;;;1.45;0.85;;;2.30;99.90;;;;;;4982003;28;20164;-87
2021/11/28 04:48:29;;;;;;;1.25;1.10;;;2.40;99.90;;;;;;4981653;28;20073;-86
2021/11/28 04:50:56;;;;;;;3.80;1.40;;;2.30;99.90;;;;;;4973174;28;20060;-86
2021/11/28 04:53:22;;;;;;;0.95;0.95;;;2.30;99.90;;;;;;4961233;29;20027;-86
2021/11/28 04:55:48;;;;;;;0.85;0.68;;;2.30;99.90;;;;;;4957869;29;20022;-88
2021/11/28 04:58:14;;;;;;;2.83;0.93;;;2.20;99.90;;;;;;4962643;29;20037;-87
2021/11/28 05:00:40;;;;;;;1.27;1.05;;;2.30;99.90;;;;;;4961693;28;20108;-87
2021/11/28 05:03:06;;;;;;;0.98;0.75;;;2.20;99.90;;;;;;4980035;28;20030;-86
2021/11/28 05:05:32;;;;;;;1.45;0.85;;;2.20;99.90;;;;;;4967651;28;20037;-86
2021/11/28 05:07:58;;;;;;;0.98;0.73;;;2.20;99.90;;;;;;4977908;28;20034;-86
2021/11/28 05:10:25;;;;;;;2.10;0.77;;;2.20;99.90;;;;;;4991327;28;20495;-87
2021/11/28 05:12:54;;;;;;;0.85;0.85;;;2.20;99.90;;;;;;4961363;28;20031;-87
2021/11/28 05:15:20;;;;;;;0.82;0.82;;;2.20;99.90;;;;;;4940931;29;20027;-87
2021/11/28 05:17:54;;;;;;;0.95;0.80;;;2.20;99.90;;;;;;4958034;28;20031;-87
2021/11/28 05:20:21;;;;;;;1.08;0.98;;;2.20;99.90;;;;;;4941979;29;20031;-86
2021/11/28 05:22:58;;;;;;;0.70;0.70;;;2.20;99.90;;;;;;4965645;28;20128;-88
2021/11/28 05:25:27;;;;;;;1.02;0.77;;;2.20;99.90;;;;;;4962612;28;20027;-88
2021/11/28 05:27:53;;;;;;;1.80;0.80;;;2.20;99.90;;;;;;4954437;29;20043;-87
2021/11/28 05:30:22;;;;;;;1.23;0.85;;;2.30;99.90;;;;;;4958134;28;20019;-87
2021/11/28 05:33:04;;;;;;;0.82;0.68;;;2.30;99.90;;;;;;4959489;28;20050;-87
2021/11/28 05:35:41;;;;;;;1.30;0.80;;;2.30;99.90;;;;;;4996953;28;20399;-87
2021/11/28 05:38:07;;;;;;;1.20;0.90;;;2.20;99.90;;;;;;4979497;28;20041;-87
2021/11/28 05:40:43;;;;;;;1.45;0.95;;;2.20;99.90;;;;;;4971519;28;20027;-87
2021/11/28 05:43:11;;;;;;;1.73;0.98;;;2.20;99.90;;;;;;4962913;28;20061;-87
2021/11/28 05:45:38;;;;;;;2.78;1.00;;;2.20;99.90;;;;;;4963550;28;20026;-87
2021/11/28 05:48:06;;;;;;;1.05;0.95;;;2.20;99.90;;;;;;4978190;28;20011;-88
2021/11/28 05:50:32;;;;;;;1.38;1.20;;;2.20;99.90;;;;;;4977974;28;20051;-87
2021/11/28 05:53:01;;;;;;;2.45;1.33;;;2.20;99.90;;;;;;4999620;28;20100;-88
2021/11/28 05:55:27;;;;;;;1.30;1.20;;;2.20;99.90;;;;;;5014777;28;20048;-88
2021/11/28 05:57:53;;;;;;;1.38;0.98;;;2.20;99.90;;;;;;5003632;28;20387;-87
2021/11/28 06:00:21;;;;;;;0.80;0.80;;;2.20;99.90;;;;;;4997047;28;20030;-87
2021/11/28 06:02:49;;;;;;;1.10;1.00;;;2.20;99.90;;;;;;4978984;28;20110;-87
2021/11/28 06:05:15;;;;;;;0.95;0.95;;;2.20;99.90;;;;;;4979767;28;20033;-87
2021/11/28 06:07:41;;;;;;;2.15;1.08;;;2.20;99.90;;;;;;4979204;28;20109;-85
2021/11/28 06:10:08;;;;;;;4.10;1.20;;;2.20;99.90;;;;;;4975177;28;20110;-87
2021/11/28 06:12:37;;;;;;;4.30;1.17;;;2.20;99.90;;;;;;4991409;28;20026;-87
2021/11/28 06:15:09;;;;;;;1.00;0.90;;;2.20;99.90;;;;;;4962883;28;20047;-87
2021/11/28 06:18:12;;;;;;;1.48;0.82;;;2.20;99.90;;;;;;4959586;28;20023;-86
2021/11/28 06:20:50;;;;;;;0.98;0.77;;;2.20;99.90;;;;;;4965526;28;20074;-87
2021/11/28 06:23:28;;;;;;;1.80;0.88;;;2.20;99.90;;;;;;4975605;28;20138;-87
2021/11/28 06:25:54;;;;;;;1.55;1.20;;;2.20;99.90;;;;;;4991660;28;20048;-86
2021/11/28 06:28:20;;;;;;;1.65;1.00;;;2.20;99.90;;;;;;4997745;28;20376;-86
2021/11/28 06:30:47;;;;;;;1.00;0.90;;;2.10;99.90;;;;;;4981306;28;20161;-85
2021/11/28 06:33:16;;;;;;;1.85;1.10;;;2.10;99.90;;;;;;4987895;28;20126;-83
2021/11/28 06:35:44;;;;;;;1.60;0.98;;;2.10;99.90;;;;;;4989218;28;20022;-83
2021/11/28 06:38:34;;;;;;;2.55;1.23;;;2.00;99.90;;;;;;4971434;28;20035;-84
2021/11/28 06:41:13;;;;;;;0.90;0.90;;;2.00;99.90;;;;;;4988623;28;20046;-84
2021/11/28 06:44:17;;;;;;;2.75;1.30;;;2.10;99.90;;;;;;4986118;28;20383;-85
2021/11/28 06:47:20;;;;;;;1.25;0.93;;;2.10;99.90;;;;;;4947845;29;20058;-84
2021/11/28 06:49:46;;;;;;;3.13;1.00;;;2.10;99.90;;;;;;4945853;29;20031;-86
2021/11/28 06:52:22;;;;;;;1.35;1.08;;;2.20;99.90;;;;;;4965236;28;20101;-85
2021/11/28 06:54:50;;;;;;;1.15;1.05;;;2.20;99.90;;;;;;5007610;28;20034;-84
2021/11/28 06:57:16;;;;;;;1.35;1.15;;;2.20;99.90;;;;;;4989482;28;20024;-86
2021/11/28 07:00:23;;;;;;;3.22;1.60;;;2.20;99.90;;;;;;4988277;28;20030;-86
2021/11/28 07:08:20;;;;;;;2.38;2.17;;;2.30;99.90;;;;;;5002076;28;20046;-85
2021/11/28 07:11:15;;;;;;;;;;;;;;;;;;;;;
2021/11/28 07:14:07;;;;;;;2.20;1.80;;;2.40;99.90;;;;;;4990139;28;20009;-85
2021/11/28 07:16:35;;;;;;;1.75;1.60;;;2.40;99.90;;;;;;4997533;28;20320;-84
2021/11/28 07:22:17;;;;;;;3.33;1.85;;;2.40;99.90;;;;;;4990554;28;20031;-85
2021/11/28 07:24:55;;;;;;;1.35;1.23;;;2.40;99.90;;;;;;4994044;28;20025;-85
2021/11/28 07:27:27;;;;;;;3.58;1.60;;;2.40;99.90;;;;;;5001548;28;20033;-87
2021/11/28 07:29:55;;;;;;;3.95;1.60;;;2.40;99.90;;;;;;5018644;28;20018;-88
2021/11/28 07:32:21;;;;;;;3.20;1.70;;;2.40;99.90;;;;;;5017543;28;20038;-87
2021/11/28 07:34:47;;;;;;;2.13;1.50;;;2.40;99.90;;;;;;5014751;28;20038;-88
2021/11/28 07:37:17;;;;;;;2.00;1.30;;;2.40;99.90;;;;;;5039768;28;20022;-90
2021/11/28 07:39:43;;;;;;;2.15;1.40;;;2.40;99.90;;;;;;5024124;28;20109;-87
2021/11/28 07:42:10;;;;;;;3.85;1.15;;;2.40;99.90;;;;;;4999923;28;20415;-87
2021/11/28 07:44:36;;;;;;;0.88;0.88;;;2.50;99.90;;;;;;5005938;28;20026;-86
2021/11/28 07:47:02;;;;;;;1.10;1.00;;;2.50;99.90;;;;;;5017314;28;20046;-85
2021/11/28 07:49:28;;;;;;;1.20;1.10;;;2.50;99.90;;;;;;5050247;28;20026;-86
2021/11/28 07:51:54;;;;;;;1.58;1.27;;;2.50;99.90;;;;;;5014974;28;20082;-86
2021/11/28 07:54:21;;;;;;;1.17;1.08;;;2.60;99.90;;;;;;5010381;28;20038;-87
2021/11/28 07:56:47;;;;;;;3.95;2.35;;;2.60;99.90;;;;;;5013993;28;20030;-84
2021/11/28 07:59:13;;;;;;;1.30;0.90;;;2.60;99.90;;;;;;5016275;28;20089;-85
2021/11/28 08:01:39;;;;;;;1.10;1.00;;;2.70;99.90;;;;;;4999223;28;20094;-85
2021/11/28 08:04:05;;;;;;;1.25;1.10;;;2.70;99.90;;;;;;5001967;28;20042;-85
2021/11/28 08:06:31;;;;;;;1.23;0.90;;;2.80;99.90;;;;;;5000992;28;20057;-85
2021/11/28 08:08:57;;;;;;;2.20;0.85;;;2.90;99.90;;;;;;5002339;28;20394;-83
2021/11/28 08:11:23;;;;;;;1.35;0.70;;;3.00;99.90;;;;;;5005028;28;20040;-85
2021/11/28 08:13:49;;;;;;;0.60;0.60;;;3.00;99.90;;;;;;5000778;28;20046;-85
2021/11/28 08:16:15;;;;;;;1.13;0.70;;;3.10;99.90;;;;;;5016720;28;20273;-85
2021/11/28 08:18:45;;;;;;;1.20;0.40;;;3.10;99.90;;;;;;5002435;28;20073;-85
2021/11/28 08:21:12;;;;;;;1.27;0.80;;;3.20;99.90;;;;;;5001831;28;20026;-85
2021/11/28 08:23:39;;;;;;;0.57;0.50;;;3.30;99.90;;;;;;5009510;23;20541;-79
2021/11/28 08:26:05;;;;;;;0.77;0.40;;;3.30;99.90;;;;;;4998107;28;20034;-77
2021/11/28 08:28:31;;;;;;;1.25;0.65;;;3.30;99.90;;;;;;5003494;28;20401;-78
2021/11/28 08:30:57;;;;;;;0.32;0.32;;;3.40;99.90;;;;;;5009237;28;20102;-79
2021/11/28 08:33:22;;;;;;;1.27;0.60;;;3.40;99.90;;;;;;4986686;28;20029;-80
2021/11/28 08:35:48;;;;;;;0.88;0.50;;;3.50;99.90;;;;;;5005027;28;20054;-80
2021/11/28 08:38:14;;;;;;;0.65;0.45;;;3.60;99.90;;;;;;5004046;28;20057;-79
2021/11/28 08:40:41;;;;;;;1.17;0.50;;;3.60;99.90;;;;;;5014183;28;20022;-79
2021/11/28 08:43:07;;;;;;;1.10;0.40;;;3.40;99.90;;;;;;4984543;28;20034;-81
2021/11/28 08:45:34;;;;;;;0.65;0.50;;;3.40;99.90;;;;;;5007966;28;20095;-82
2021/11/28 08:48:00;;;;;;;1.63;0.60;;;3.40;99.90;;;;;;4984201;28;20026;-81
2021/11/28 08:50:27;;;;;;;1.00;0.38;;;3.60;99.90;;;;;;5001828;28;20030;-81
2021/11/28 08:52:53;;;;;;;0.30;0.30;;;3.70;99.90;;;;;;5013415;28;20037;-79
2021/11/28 08:55:19;;;;;;;1.60;0.63;;;3.90;99.90;;;;;;5004197;28;20030;-79
2021/11/28 08:57:46;;;;;;;1.67;0.30;;;4.10;99.90;;;;;;5004731;28;20049;-79
2021/11/28 09:00:13;;;;;;;0.30;0.30;;;4.40;99.90;;;;;;5001084;28;20030;-77
2021/11/28 09:02:40;;;;;;;0.63;0.43;;;4.50;99.90;;;;;;5021695;28;20025;-80
2021/11/28 09:05:06;;;;;;;1.10;0.90;;;4.70;99.90;;;;;;5021348;28;20024;-79
2021/11/28 09:07:32;;;;;;;1.40;0.90;;;4.60;99.90;;;;;;5019903;28;20426;-79
2021/11/28 09:09:59;;;;;;;1.25;0.70;;;4.60;99.30;;;;;;5003479;28;20064;-77
2021/11/28 09:12:25;;;;;;;0.65;0.45;;;4.50;99.10;;;;;;5004173;28;20109;-81
2021/11/28 09:14:50;;;;;;;0.80;0.80;;;4.40;99.30;;;;;;5003172;28;20517;-81
2021/11/28 09:17:16;;;;;;;0.90;0.90;;;4.30;99.60;;;;;;5020810;28;20467;-78
2021/11/28 09:19:52;;;;;;;0.63;0.63;;;4.20;99.70;;;;;;4984451;28;20093;-78
2021/11/28 09:25:04;;;;;;;1.08;0.90;;;4.10;99.90;;;;;;4983414;28;20050;-78
2021/11/28 09:27:30;;;;;;;1.15;0.88;;;4.00;99.90;;;;;;5021728;28;20032;-78
2021/11/28 09:29:56;;;;;;;0.57;0.57;;;4.00;99.90;;;;;;4997782;28;20030;-78
2021/11/28 09:32:21;;;;;;;1.20;0.82;;;4.00;99.90;;;;;;5019867;28;20034;-83
2021/11/28 09:34:47;;;;;;;0.70;0.70;;;4.00;99.90;;;;;;5007789;28;20030;-83
2021/11/28 09:37:13;;;;;;;1.48;1.10;;;4.20;99.90;;;;;;5001631;28;20053;-81
2021/11/28 09:39:44;;;;;;;0.80;0.80;;;4.20;99.90;;;;;;5014557;28;20026;-82
2021/11/28 09:42:11;;;;;;;0.65;0.50;;;4.30;99.90;;;;;;5024336;28;20041;-81
2021/11/28 09:44:39;;;;;;;0.70;0.70;;;4.50;99.90;;;;;;5015171;28;20057;-82
2021/11/28 09:47:09;;;;;;;0.90;0.73;;;4.70;99.90;;;;;;5018385;28;20022;-80
2021/11/28 09:49:36;;;;;;;0.77;0.70;;;4.80;98.80;;;;;;5029252;28;20014;-80
2021/11/28 09:52:06;;;;;;;1.65;0.75;;;4.70;98.80;;;;;;5031327;28;20014;-82
2021/11/28 09:54:44;;;;;;;0.70;0.60;;;4.80;98.60;;;;;;5002482;28;20125;-80
2021/11/28 09:57:12;;;;;;;4.82;1.20;;;4.70;98.20;;;;;;5021383;28;20133;-81
2021/11/28 09:59:39;;;;;;;2.85;1.02;;;4.70;97.70;;;;;;5002984;28;20050;-80
2021/11/28 10:02:06;;;;;;;1.02;0.75;;;4.60;97.50;;;;;;5002050;28;20022;-78
2021/11/28 10:04:32;;;;;;;1.63;0.80;;;4.60;97.50;;;;;;5018255;28;20044;-81
2021/11/28 10:06:59;;;;;;;1.65;0.77;;;4.50;97.30;;;;;;5018871;28;20022;-79
2021/11/28 10:09:25;;;;;;;1.00;0.88;;;4.50;97.50;;;;;;5019997;28;20030;-81
2021/11/28 10:12:11;;;;;;;1.63;0.70;;;4.30;97.50;;;;;;5019023;28;20080;-78
2021/11/28 10:14:37;;;;;;;1.00;0.73;;;4.20;97.90;;;;;;5015901;28;20032;-78
2021/11/28 10:17:03;;;;;;;1.73;0.88;;;4.10;98.40;;;;;;5016240;28;20429;-79
2021/11/28 10:19:32;;;;;;;1.80;1.15;;;4.00;98.80;;;;;;5019333;28;20041;-78
2021/11/28 10:21:59;;;;;;;1.27;0.70;;;3.90;99.00;;;;;;5010602;28;20029;-80
2021/11/28 10:24:25;;;;;;;0.98;0.60;;;3.80;99.20;;;;;;5000658;28;20080;-79
2021/11/28 10:26:57;;;;;;;1.52;0.93;;;3.70;99.40;;;;;;5000737;28;20022;-79
2021/11/28 10:29:27;;;;;;;2.55;1.08;;;3.70;99.70;;;;;;5019213;28;20021;-81
2021/11/28 10:31:54;;;;;;;1.27;0.98;;;3.70;99.90;;;;;;5002300;28;20037;-81
2021/11/28 10:34:34;;;;;;;1.30;0.90;;;3.70;99.90;;;;;;4992385;28;20030;-79
2021/11/28 10:37:09;;;;;;;1.88;1.10;;;3.70;99.90;;;;;;4981758;28;20035;-80
2021/11/28 10:39:41;;;;;;;3.58;1.38;;;3.80;99.90;;;;;;4981824;28;20056;-79
2021/11/28 10:42:17;;;;;;;1.42;0.93;;;3.70;99.80;;;;;;4998767;28;20339;-79
2021/11/28 10:45:03;;;;;;;2.63;1.20;;;3.70;99.70;;;;;;4998664;28;20038;-80
2021/11/28 10:47:48;;;;;;;1.42;0.95;;;3.80;99.60;;;;;;4981617;28;20026;-80
2021/11/28 10:50:22;;;;;;;1.38;0.80;;;3.80;99.60;;;;;;5000149;28;20026;-78
2021/11/28 10:52:51;;;;;;;0.95;0.85;;;3.80;99.50;;;;;;4997109;28;20383;-79
2021/11/28 10:55:27;;;;;;;0.68;0.68;;;3.90;99.40;;;;;;5018464;28;20061;-80
2021/11/28 10:58:09;;;;;;;2.47;1.02;;;3.90;99.20;;;;;;5018508;28;20026;-78
2021/11/28 11:00:55;;;;;;;1.35;1.00;;;4.00;99.10;;;;;;5018099;28;20101;-79
2021/11/28 11:03:26;;;;;;;1.42;0.90;;;4.00;98.90;;;;;;4986245;28;20042;-80
2021/11/28 11:05:56;;;;;;;0.85;0.80;;;4.00;98.90;;;;;;4998722;28;20026;-78
2021/11/28 11:08:26;;;;;;;2.75;1.08;;;4.20;98.90;;;;;;4999267;28;20364;-79
2021/11/28 11:11:07;;;;;;;2.50;1.08;;;4.30;98.40;;;;;;4981264;28;20113;-78
2021/11/28 11:13:33;;;;;;;2.65;1.33;;;4.30;98.10;;;;;;5001224;28;20053;-79
2021/11/28 11:15:58;;;;;;;0.77;0.77;;;4.30;98.20;;;;;;4998660;28;20026;-81
2021/11/28 11:18:27;;;;;;;3.58;1.52;;;4.30;98.20;;;;;;4999796;28;20023;-79
2021/11/28 11:21:03;;;;;;;1.42;1.13;;;4.30;98.30;;;;;;5008000;28;20170;-78
2021/11/28 11:23:44;;;;;;;1.40;1.17;;;4.40;98.50;;;;;;4988669;28;20039;-79
2021/11/28 11:26:21;;;;;;;3.03;1.63;;;4.30;98.30;;;;;;5001648;28;20023;-79
2021/11/28 11:28:59;;;;;;;1.52;1.20;;;4.20;98.10;;;;;;5004041;28;20122;-80
2021/11/28 11:31:25;;;;;;;2.60;1.02;;;4.10;98.50;;;;;;4986949;28;20086;-79
2021/11/28 11:33:51;;;;;;;1.75;1.30;;;3.90;98.60;;;;;;4986344;28;20125;-79
2021/11/28 11:36:17;;;;;;;2.72;1.08;;;3.80;99.20;;;;;;5002481;28;20465;-78
2021/11/28 11:38:43;;;;;;;1.40;1.20;;;3.70;99.60;;;;;;4985351;28;20023;-80
2021/11/28 11:41:09;;;;;;;2.63;1.70;;;3.60;99.90;;;;;;5002969;28;20026;-78
2021/11/28 11:43:38;;;;;;;1.98;1.45;;;3.50;99.90;;;;;;4986069;28;20026;-79
2021/11/28 11:46:08;;;;;;;1.83;1.35;;;3.50;99.90;;;;;;4985908;28;20080;-80
2021/11/28 11:48:35;;;;;;;3.50;2.45;;;3.30;99.90;;;;;;4985992;28;20068;-81
2021/11/28 11:51:04;;;;;;;3.03;1.73;;;3.20;99.90;;;;;;5019310;28;20026;-80
2021/11/28 11:53:31;;;;;;;3.75;2.28;;;3.10;99.90;;;;;;4995054;28;20431;-79
2021/11/28 11:55:58;;;;;;;2.88;1.40;;;2.90;99.90;;;;;;4985674;28;20023;-80
2021/11/28 11:58:33;;;;;;;1.77;1.67;;;2.80;99.90;;;;;;4984696;28;20026;-78
2021/11/28 12:01:02;;;;;;;4.55;1.90;;;2.80;99.90;;;;;;5002385;28;20026;-79
2021/11/28 12:03:41;;;;;;;5.25;3.20;;;2.80;99.90;;;;;;4985152;28;20022;-79
2021/11/28 12:06:07;;;;;;;4.88;2.88;;;2.90;99.90;;;;;;5002646;28;20022;-80
2021/11/28 12:08:33;;;;;;;4.82;2.72;;;2.90;99.90;;;;;;4983999;28;20437;-81
2021/11/28 12:11:03;;;;;;;3.60;2.30;;;2.90;99.90;;;;;;5004480;28;20030;-80
2021/11/28 12:13:29;;;;;;;2.97;2.28;;;3.00;99.90;;;;;;4986561;28;20112;-82
2021/11/28 12:16:04;;;;;;;2.30;2.10;;;3.00;99.90;;;;;;5020141;28;20030;-78
2021/11/28 12:18:35;;;;;;;2.72;2.50;;;3.10;99.90;;;;;;5003950;28;20072;-80
2021/11/28 12:21:09;;;;;;;6.15;2.80;;;3.10;99.90;;;;;;5005173;28;20073;-81
2021/11/28 12:23:43;;;;;;;6.07;2.28;;;3.10;99.90;;;;;;5020906;28;20062;-78
2021/11/28 12:26:33;;;;;;;4.40;2.38;;;3.10;99.90;;;;;;4986826;28;20056;-79
2021/11/28 12:29:19;;;;;;;4.13;2.30;;;3.10;99.90;;;;;;4978261;28;20301;-80
2021/11/28 12:31:47;;;;;;;4.25;2.17;;;3.10;99.90;;;;;;5002269;28;20050;-79
2021/11/28 12:34:13;;;;;;;5.82;2.85;;;3.20;99.90;;;;;;5001659;28;20029;-83
2021/11/28 12:36:42;;;;;;;5.05;2.83;;;3.30;99.90;;;;;;5001960;28;20022;-78
2021/11/28 12:39:16;;;;;;;3.92;2.70;;;3.30;99.90;;;;;;5001681;28;20026;-80
2021/11/28 12:41:45;;;;;;;2.80;2.50;;;3.30;99.90;;;;;;4985902;28;20030;-82
2021/11/28 12:44:19;;;;;;;5.95;3.60;;;3.40;99.90;;;;;;4986860;28;20096;-82
2021/11/28 12:46:48;;;;;;;9.77;4.70;;;3.30;99.90;;;;;;4987496;28;20033;-80
2021/11/28 12:49:35;;;;;;;7.63;4.38;;;3.30;99.90;;;;;;5002521;28;20046;-84
2021/11/28 12:52:25;;;;;;;5.40;3.30;;;3.30;99.90;;;;;;4970510;28;20031;-80
2021/11/28 12:55:03;;;;;;;2.40;1.90;;;3.30;99.90;;;;;;5023788;28;20017;-78
2021/11/28 12:57:34;;;;;;;2.90;1.83;;;3.40;99.90;;;;;;4983658;28;20031;-80
2021/11/28 13:00:30;;;;;;;3.67;1.85;;;3.50;99.90;;;;;;4980003;28;20037;-81
2021/11/28 13:03:20;;;;;;;3.72;2.25;;;3.50;99.90;;;;;;5023238;28;20022;-80
2021/11/28 13:05:47;;;;;;;4.82;2.67;;;3.60;99.90;;;;;;5001791;28;20475;-79
2021/11/28 13:08:12;;;;;;;5.70;3.40;;;3.60;99.90;;;;;;5008008;28;20030;-78
2021/11/28 13:10:52;;;;;;;5.43;3.42;;;3.70;99.90;;;;;;5012074;28;20045;-83
2021/11/28 13:13:24;;;;;;;3.35;2.45;;;3.70;99.90;;;;;;4990827;28;20484;-79
2021/11/28 13:15:52;;;;;;;5.60;2.33;;;3.60;99.90;;;;;;4983777;28;20026;-80
2021/11/28 13:18:29;;;;;;;4.07;3.00;;;3.50;99.90;;;;;;4985098;28;20026;-81
2021/11/28 13:21:11;;;;;;;5.45;2.63;;;3.50;99.90;;;;;;4995087;28;20056;-81
2021/11/28 13:23:40;;;;;;;7.15;3.20;;;3.50;99.80;;;;;;5017586;28;20060;-79
2021/11/28 13:26:05;;;;;;;5.25;3.25;;;3.40;99.90;;;;;;5023112;28;20045;-80
2021/11/28 13:28:36;;;;;;;4.90;3.00;;;3.40;99.70;;;;;;4984966;28;20026;-80
2021/11/28 13:31:19;;;;;;;4.72;3.13;;;3.40;99.90;;;;;;4985311;28;20034;-80
2021/11/28 13:33:57;;;;;;;11.27;5.95;;;3.30;99.90;;;;;;5001560;28;20022;-83